createdAt,value
2018-12-19T00:02:24.930Z,97977.06
2018-12-19T00:04:57.470Z,97962.73
2018-12-19T00:07:30.176Z,97959.39
2018-12-19T00:10:00.635Z,97967.82
2018-12-19T00:12:32.450Z,97956.02
2018-12-19T00:15:03.764Z,97957.75
2018-12-19T00:17:36.402Z,97965.78
2018-12-19T00:20:08.268Z,97963.66
2018-12-19T00:22:38.838Z,97985.98
2018-12-19T00:25:09.725Z,97971.23
2018-12-19T00:27:42.423Z,97968.31
2018-12-19T00:30:14.979Z,97972.13
2018-12-19T00:32:47.611Z,97967.48
2018-12-19T00:35:21.020Z,97961.99
2018-12-19T00:37:51.519Z,97981.36
2018-12-19T00:40:23.215Z,97981.33
2018-12-19T00:42:53.837Z,97969.55
2018-12-19T00:45:24.803Z,97967.03
2018-12-19T00:47:55.330Z,97961.98
2018-12-19T00:50:27.814Z,97961.58
2018-12-19T00:52:58.364Z,97955.25
2018-12-19T00:55:28.814Z,97958.61
2018-12-19T00:58:00.286Z,97955.27
2018-12-19T01:00:30.986Z,97967.05
2018-12-19T01:03:01.588Z,97970.42
2018-12-19T01:05:32.051Z,97971.69
2018-12-19T01:08:02.744Z,97974.63
2018-12-19T01:10:33.337Z,97972.09
2018-12-19T01:13:03.846Z,97980.52
2018-12-19T01:15:34.336Z,97977.57
2018-12-19T01:18:05.028Z,97969.97
2018-12-19T01:20:35.651Z,97971.23
2018-12-19T01:23:06.247Z,97963.25
2018-12-19T01:25:36.712Z,97963.27
2018-12-19T01:28:07.261Z,97958.63
2018-12-19T01:30:38.860Z,97957.38
2018-12-19T01:33:09.392Z,97951.89
2018-12-19T01:35:40.589Z,97956.95
2018-12-19T01:38:11.320Z,97965.37
2018-12-19T01:40:41.934Z,97965.77
2018-12-19T01:45:55.106Z,97963.28
2018-12-19T01:48:25.910Z,97954.84
2018-12-19T01:50:56.364Z,97952.34
2018-12-19T01:53:26.934Z,97950.22
2018-12-19T01:55:57.548Z,97962.00
2018-12-19T01:58:28.084Z,97964.52
2018-12-19T02:00:58.662Z,97963.28
2018-12-19T02:03:30.498Z,97967.07
2018-12-19T02:06:01.078Z,97956.98
2018-12-19T02:08:31.580Z,97961.16
2018-12-19T02:11:02.121Z,97945.16
2018-12-19T02:13:32.784Z,97946.45
2018-12-19T02:16:03.232Z,97955.72
2018-12-19T02:18:33.638Z,97954.44
2018-12-19T02:21:04.062Z,97960.34
2018-12-19T02:23:34.952Z,97965.83
2018-12-19T02:26:05.636Z,97979.72
2018-12-19T02:28:36.138Z,97975.88
2018-12-19T02:31:06.824Z,97981.77
2018-12-19T02:33:37.312Z,97975.91
2018-12-19T02:36:07.882Z,97971.69
2018-12-19T02:38:38.321Z,97991.45
2018-12-19T02:41:08.967Z,97985.15
2018-12-19T02:43:39.573Z,97994.86
2018-12-19T02:46:10.119Z,97981.84
2018-12-19T02:48:40.743Z,97970.47
2018-12-19T02:51:11.355Z,97967.94
2018-12-19T02:53:41.843Z,97956.59
2018-12-19T02:56:12.313Z,97961.66
2018-12-19T02:58:42.919Z,97959.14
2018-12-19T03:01:13.615Z,97964.19
2018-12-19T03:03:44.644Z,97958.30
2018-12-19T03:06:15.432Z,97964.61
2018-12-19T03:08:46.200Z,97952.44
2018-12-19T03:11:17.072Z,97957.03
2018-12-19T03:13:51.638Z,97956.19
2018-12-19T03:16:22.935Z,97950.73
2018-12-19T03:18:54.444Z,97940.20
2018-12-19T03:21:25.130Z,97941.92
2018-12-19T03:23:55.649Z,97959.56
2018-12-19T03:26:26.405Z,97947.79
2018-12-19T03:28:57.025Z,97952.86
2018-12-19T03:31:27.661Z,97960.83
2018-12-19T03:33:58.606Z,97977.22
2018-12-19T03:36:29.378Z,97979.77
2018-12-19T03:39:00.135Z,97988.58
2018-12-19T03:41:31.019Z,97994.92
2018-12-19T03:44:01.906Z,97999.95
2018-12-19T03:46:32.735Z,97998.27
2018-12-19T03:49:03.359Z,98005.00
2018-12-19T03:51:34.098Z,98015.09
2018-12-19T03:54:04.861Z,98023.51
2018-12-19T03:56:35.394Z,98033.17
2018-12-19T03:59:06.052Z,98036.55
2018-12-19T04:01:37.391Z,98042.02
2018-12-19T04:04:08.711Z,98042.86
2018-12-19T04:06:40.633Z,98036.10
2018-12-19T04:09:12.098Z,98043.67
2018-12-19T04:11:43.553Z,98047.46
2018-12-19T04:14:15.709Z,98052.95
2018-12-19T04:16:47.280Z,98042.42
2018-12-19T04:19:18.891Z,98039.91
2018-12-19T04:21:52.710Z,98037.39
2018-12-19T04:24:24.430Z,98041.19
2018-12-19T04:26:56.399Z,98038.64
2018-12-19T04:29:27.792Z,98037.39
2018-12-19T04:32:00.830Z,98040.36
2018-12-19T04:34:32.190Z,98033.20
2018-12-19T04:37:03.581Z,98034.45
2018-12-19T04:39:36.372Z,98041.18
2018-12-19T04:42:08.190Z,98032.36
2018-12-19T04:44:39.530Z,98047.08
2018-12-19T04:47:10.851Z,98048.33
2018-12-19T04:49:42.090Z,98050.86
2018-12-19T04:52:13.680Z,98047.91
2018-12-19T04:54:45.310Z,98036.97
2018-12-19T04:57:17.060Z,98039.07
2018-12-19T04:59:48.552Z,98031.53
2018-12-19T05:02:20.102Z,98043.28
2018-12-19T05:04:51.201Z,98042.03
2018-12-19T05:07:23.040Z,98047.91
2018-12-19T05:09:54.472Z,98050.03
2018-12-19T05:12:26.920Z,98057.16
2018-12-19T05:14:58.182Z,98060.11
2018-12-19T05:17:29.490Z,98055.08
2018-12-19T05:20:01.066Z,98054.64
2018-12-19T05:22:32.821Z,98052.98
2018-12-19T05:25:04.420Z,98039.94
2018-12-19T05:27:35.720Z,98035.31
2018-12-19T05:30:07.959Z,98039.50
2018-12-19T05:32:39.381Z,98050.42
2018-12-19T05:35:10.845Z,98043.69
2018-12-19T05:37:42.600Z,98049.17
2018-12-19T05:40:18.933Z,98050.00
2018-12-19T05:42:47.731Z,98060.09
2018-12-19T05:45:19.111Z,98051.27
2018-12-19T05:47:53.220Z,98070.17
2018-12-19T05:50:33.671Z,98079.84
2018-12-19T05:53:05.063Z,98073.56
2018-12-19T05:55:36.352Z,98068.94
2018-12-19T05:58:08.221Z,98066.00
2018-12-19T06:00:39.871Z,98056.74
2018-12-19T06:03:13.600Z,98055.05
2018-12-19T06:05:45.170Z,98063.47
2018-12-19T06:08:16.743Z,98070.19
2018-12-19T06:10:48.072Z,98061.78
2018-12-19T06:13:19.372Z,98058.83
2018-12-19T06:15:51.110Z,98057.98
2018-12-19T06:18:22.950Z,98056.33
2018-12-19T06:20:54.590Z,98061.36
2018-12-19T06:23:26.540Z,98065.97
2018-12-19T06:25:59.070Z,98059.69
2018-12-19T06:28:30.763Z,98047.48
2018-12-19T06:33:45.920Z,98055.91
2018-12-19T06:36:17.480Z,98055.05
2018-12-19T06:38:49.440Z,98060.93
2018-12-19T06:41:21.170Z,98074.39
2018-12-19T06:43:52.940Z,98084.47
2018-12-19T06:46:24.570Z,98083.22
2018-12-19T06:48:56.211Z,98085.31
2018-12-19T06:51:27.885Z,98080.67
2018-12-19T06:53:59.510Z,98079.86
2018-12-19T06:56:31.010Z,98071.88
2018-12-19T06:59:02.800Z,98086.58
2018-12-19T07:01:34.770Z,98097.92
2018-12-19T07:04:06.189Z,98100.44
2018-12-19T07:06:38.410Z,98094.55
2018-12-19T07:09:11.182Z,98092.05
2018-12-19T07:11:42.839Z,98086.98
2018-12-19T07:14:14.565Z,98101.30
2018-12-19T07:16:46.082Z,98110.12
2018-12-19T07:19:17.955Z,98099.17
2018-12-19T07:21:50.370Z,98112.63
2018-12-19T07:24:22.031Z,98112.60
2018-12-19T07:26:54.260Z,98111.34
2018-12-19T07:29:25.690Z,98112.61
2018-12-19T07:31:57.320Z,98121.84
2018-12-19T07:34:29.000Z,98127.72
2018-12-19T07:37:00.590Z,98126.05
2018-12-19T07:39:32.360Z,98122.25
2018-12-19T07:42:03.950Z,98110.09
2018-12-19T07:44:36.070Z,98125.21
2018-12-19T07:47:07.681Z,98129.00
2018-12-19T07:49:39.481Z,98137.38
2018-12-19T07:52:11.630Z,98131.94
2018-12-19T07:54:43.150Z,98136.98
2018-12-19T07:57:14.880Z,98139.50
2018-12-19T07:59:46.730Z,98128.57
2018-12-19T08:02:18.510Z,98131.50
2018-12-19T08:04:50.920Z,98134.06
2018-12-19T08:07:22.491Z,98127.75
2018-12-19T08:09:54.120Z,98130.29
2018-12-19T08:12:27.023Z,98134.88
2018-12-19T08:15:03.351Z,98134.08
2018-12-19T08:17:49.540Z,98137.02
2018-12-19T08:20:41.350Z,98135.75
2018-12-19T08:23:18.090Z,98140.38
2018-12-19T08:25:49.720Z,98139.13
2018-12-19T08:28:21.520Z,98143.32
2018-12-19T08:30:53.440Z,98137.89
2018-12-19T08:33:25.050Z,98147.11
2018-12-19T08:35:56.750Z,98129.86
2018-12-19T08:38:28.623Z,98122.31
2018-12-19T08:41:00.320Z,98133.64
2018-12-19T08:43:31.990Z,98129.02
2018-12-19T08:46:03.570Z,98121.03
2018-12-19T08:48:35.449Z,98126.94
2018-12-19T08:51:07.290Z,98125.25
2018-12-19T08:53:40.310Z,98118.52
2018-12-19T08:56:12.170Z,98110.95
2018-12-19T08:58:43.680Z,98107.59
2018-12-19T09:01:15.593Z,98108.02
2018-12-19T09:03:47.111Z,98104.64
2018-12-19T09:06:18.910Z,98094.14
2018-12-19T09:08:50.430Z,98089.52
2018-12-19T09:11:21.960Z,98086.17
2018-12-19T09:13:54.610Z,98079.44
2018-12-19T09:16:27.331Z,98085.77
2018-12-19T09:18:59.190Z,98076.09
2018-12-19T09:21:31.060Z,98078.60
2018-12-19T09:24:02.830Z,98072.30
2018-12-19T09:26:34.232Z,98071.48
2018-12-19T09:29:05.721Z,98065.15
2018-12-19T09:31:37.390Z,98066.84
2018-12-19T09:34:09.759Z,98066.00
2018-12-19T09:36:41.379Z,98059.68
2018-12-19T09:39:13.030Z,98057.16
2018-12-19T09:41:45.131Z,98058.01
2018-12-19T09:44:16.859Z,98055.48
2018-12-19T09:46:48.449Z,98036.57
2018-12-19T09:49:20.979Z,98047.06
2018-12-19T09:51:53.011Z,98045.40
2018-12-19T09:54:24.800Z,98041.59
2018-12-19T09:56:58.029Z,98050.02
2018-12-19T09:59:29.521Z,98048.75
2018-12-19T10:02:01.549Z,98038.66
2018-12-19T10:04:33.173Z,98041.61
2018-12-19T10:07:04.749Z,98046.25
2018-12-19T10:09:36.499Z,98038.68
2018-12-19T10:12:08.297Z,98036.97
2018-12-19T10:14:40.539Z,98036.14
2018-12-19T10:17:12.059Z,98024.80
2018-12-19T10:19:44.170Z,98033.63
2018-12-19T10:22:19.390Z,98036.14
2018-12-19T10:24:55.840Z,98033.61
2018-12-19T10:27:27.071Z,98029.00
2018-12-19T10:29:58.320Z,98034.05
2018-12-19T10:32:33.902Z,98036.16
2018-12-19T10:35:05.949Z,98038.25
2018-12-19T10:37:39.039Z,98036.99
2018-12-19T10:40:12.949Z,98036.15
2018-12-19T10:42:44.470Z,98044.14
2018-12-19T10:45:16.282Z,98029.02
2018-12-19T10:47:48.149Z,98041.62
2018-12-19T10:50:19.870Z,98041.62
2018-12-19T10:52:53.569Z,98043.72
2018-12-19T10:55:26.942Z,98047.93
2018-12-19T10:57:58.209Z,98028.16
2018-12-19T11:00:35.827Z,98042.86
2018-12-19T11:03:07.219Z,98047.06
2018-12-19T11:05:39.169Z,98025.23
2018-12-19T11:08:10.782Z,98044.13
2018-12-19T11:10:42.679Z,98028.56
2018-12-19T11:13:15.460Z,98048.76
2018-12-19T11:15:48.759Z,98041.18
2018-12-19T11:18:20.670Z,98041.61
2018-12-19T11:20:52.650Z,98039.49
2018-12-19T11:23:24.610Z,98050.45
2018-12-19T11:25:56.250Z,98047.92
2018-12-19T11:28:28.300Z,98052.95
2018-12-19T11:31:00.163Z,98063.05
2018-12-19T11:33:31.540Z,98061.35
2018-12-19T11:36:03.701Z,98077.34
2018-12-19T11:38:35.270Z,98052.14
2018-12-19T11:41:07.020Z,98058.41
2018-12-19T11:43:38.899Z,98058.00
2018-12-19T11:46:10.460Z,98057.14
2018-12-19T11:48:42.049Z,98062.20
2018-12-19T11:51:13.559Z,98056.73
2018-12-19T11:53:45.120Z,98060.95
2018-12-19T11:56:17.209Z,98063.88
2018-12-19T11:58:49.401Z,98071.88
2018-12-19T12:01:21.420Z,98075.67
2018-12-19T12:03:54.680Z,98062.20
2018-12-19T12:06:28.690Z,98076.49
2018-12-19T12:09:00.369Z,98071.44
2018-12-19T12:11:31.779Z,98076.93
2018-12-19T12:14:03.460Z,98078.16
2018-12-19T12:16:35.350Z,98073.56
2018-12-19T12:19:07.693Z,98073.14
2018-12-19T12:21:40.939Z,98073.96
2018-12-19T12:24:12.489Z,98078.16
2018-12-19T12:26:46.939Z,98083.23
2018-12-19T12:29:18.580Z,98095.00
2018-12-19T12:31:50.389Z,98093.75
2018-12-19T12:34:23.159Z,98107.19
2018-12-19T12:36:55.240Z,98107.59
2018-12-19T12:39:26.690Z,98109.29
2018-12-19T12:42:00.137Z,98116.43
2018-12-19T12:44:34.220Z,98115.17
2018-12-19T12:47:05.670Z,98120.63
2018-12-19T12:49:38.490Z,98120.23
2018-12-19T12:52:10.359Z,98132.81
2018-12-19T12:54:42.070Z,98137.88
2018-12-19T12:57:16.620Z,98130.31
2018-12-19T13:02:33.679Z,98126.09
2018-12-19T13:05:05.549Z,98121.47
2018-12-19T13:07:37.229Z,98131.56
2018-12-19T13:10:10.209Z,98125.22
2018-12-19T13:12:41.670Z,98126.91
2018-12-19T13:15:15.329Z,98131.11
2018-12-19T13:17:49.999Z,98124.38
2018-12-19T13:20:22.309Z,98130.64
2018-12-19T13:22:54.021Z,98125.16
2018-12-19T13:25:25.880Z,98131.92
2018-12-19T13:27:57.620Z,98142.01
2018-12-19T13:30:29.559Z,98140.30
2018-12-19T13:33:01.281Z,98133.55
2018-12-19T13:35:33.079Z,98132.73
2018-12-19T13:38:09.460Z,98136.52
2018-12-19T13:40:42.829Z,98139.01
2018-12-19T13:43:14.545Z,98146.57
2018-12-19T13:45:45.759Z,98143.64
2018-12-19T13:48:17.539Z,98147.00
2018-12-19T13:50:48.923Z,98147.45
2018-12-19T13:53:20.429Z,98152.92
2018-12-19T13:55:52.039Z,98155.01
2018-12-19T13:58:23.949Z,98161.27
2018-12-19T14:00:55.799Z,98168.44
2018-12-19T14:03:28.659Z,98157.09
2018-12-19T14:06:00.030Z,98163.81
2018-12-19T14:08:31.752Z,98165.05
2018-12-19T14:11:03.289Z,98165.86
2018-12-19T14:13:34.890Z,98170.09
2018-12-19T14:16:06.229Z,98165.84
2018-12-19T14:18:39.630Z,98163.33
2018-12-19T14:21:11.010Z,98165.84
2018-12-19T14:23:42.821Z,98154.09
2018-12-19T14:26:15.569Z,98162.94
2018-12-19T14:28:47.500Z,98162.50
2018-12-19T14:31:20.510Z,98153.27
2018-12-19T14:33:53.429Z,98165.87
2018-12-19T14:36:26.189Z,98161.67
2018-12-19T14:38:57.659Z,98167.16
2018-12-19T14:41:29.180Z,98172.17
2018-12-19T14:44:00.889Z,98173.45
2018-12-19T14:46:32.389Z,98158.77
2018-12-19T14:49:04.079Z,98170.52
2018-12-19T14:51:35.989Z,98176.41
2018-12-19T14:54:07.619Z,98185.25
2018-12-19T14:56:39.139Z,98177.69
2018-12-19T14:59:10.931Z,98180.64
2018-12-19T15:01:43.039Z,98171.00
2018-12-19T15:04:14.623Z,98170.14
2018-12-19T15:06:46.059Z,98168.05
2018-12-19T15:09:17.779Z,98163.80
2018-12-19T15:11:49.159Z,98164.65
2018-12-19T15:14:20.779Z,98182.70
2018-12-19T15:16:52.389Z,98172.63
2018-12-19T15:19:24.079Z,98187.34
2018-12-19T15:21:56.709Z,98187.75
2018-12-19T15:24:30.069Z,98179.37
2018-12-19T15:27:02.918Z,98188.19
2018-12-19T15:29:34.469Z,98185.23
2018-12-19T15:32:06.167Z,98196.98
2018-12-19T15:34:38.169Z,98192.36
2018-12-19T15:37:09.808Z,98206.25
2018-12-19T15:39:41.559Z,98199.09
2018-12-19T15:42:14.741Z,98206.66
2018-12-19T15:44:46.208Z,98214.63
2018-12-19T15:47:17.609Z,98224.28
2018-12-19T15:49:51.048Z,98212.55
2018-12-19T15:52:24.829Z,98218.85
2018-12-19T15:54:57.259Z,98212.08
2018-12-19T15:57:28.730Z,98221.73
2018-12-19T16:00:00.552Z,98225.95
2018-12-19T16:02:35.419Z,98226.77
2018-12-19T16:05:07.209Z,98223.42
2018-12-19T16:07:39.079Z,98230.48
2018-12-19T16:10:12.319Z,98231.34
2018-12-19T16:12:46.069Z,98230.11
2018-12-19T16:15:17.469Z,98234.70
2018-12-19T16:17:49.048Z,98238.48
2018-12-19T16:20:20.629Z,98226.74
2018-12-19T16:22:53.039Z,98241.01
2018-12-19T16:25:26.729Z,98243.15
2018-12-19T16:27:58.018Z,98239.34
2018-12-19T16:30:29.889Z,98241.42
2018-12-19T16:33:01.519Z,98245.67
2018-12-19T16:35:32.948Z,98253.61
2018-12-19T16:38:04.489Z,98247.72
2018-12-19T16:40:36.520Z,98258.23
2018-12-19T16:43:11.679Z,98244.34
2018-12-19T16:45:43.328Z,98249.39
2018-12-19T16:48:16.368Z,98252.28
2018-12-19T16:50:48.240Z,98254.42
2018-12-19T16:53:20.019Z,98251.47
2018-12-19T16:55:51.639Z,98251.47
2018-12-19T16:58:23.218Z,98261.98
2018-12-19T17:00:56.589Z,98252.76
2018-12-19T17:03:29.888Z,98260.32
2018-12-19T17:06:01.378Z,98269.11
2018-12-19T17:08:33.089Z,98274.99
2018-12-19T17:11:04.789Z,98272.92
2018-12-19T17:13:36.768Z,98272.47
2018-12-19T17:16:08.458Z,98282.55
2018-12-19T17:18:41.609Z,98272.88
2018-12-19T17:21:13.289Z,98275.41
2018-12-19T17:23:45.169Z,98276.25
2018-12-19T17:26:17.241Z,98272.03
2018-12-19T17:28:49.819Z,98277.52
2018-12-19T17:31:21.659Z,98266.99
2018-12-19T17:33:53.181Z,98271.63
2018-12-19T17:36:24.589Z,98281.33
2018-12-19T17:38:56.008Z,98282.96
2018-12-19T17:41:28.231Z,98282.18
2018-12-19T17:44:00.759Z,98282.14
2018-12-19T17:46:33.059Z,98277.92
2018-12-19T17:49:05.179Z,98289.27
2018-12-19T17:51:37.208Z,98281.30
2018-12-19T17:54:11.079Z,98277.89
2018-12-19T17:56:43.684Z,98289.23
2018-12-19T17:59:15.169Z,98282.92
2018-12-19T18:01:46.799Z,98291.75
2018-12-19T18:04:18.459Z,98300.16
2018-12-19T18:06:50.348Z,98287.52
2018-12-19T18:09:23.389Z,98287.92
2018-12-19T18:11:55.388Z,98296.34
2018-12-19T18:14:26.829Z,98298.45
2018-12-19T18:16:58.097Z,98303.08
2018-12-19T18:19:31.149Z,98297.56
2018-12-19T18:22:02.879Z,98297.59
2018-12-19T18:24:36.782Z,98296.70
2018-12-19T18:27:10.090Z,98306.33
2018-12-19T18:29:41.750Z,98296.22
2018-12-19T18:32:13.410Z,98302.06
2018-12-19T18:34:45.630Z,98305.92
2018-12-19T18:37:17.309Z,98315.55
2018-12-19T18:39:48.911Z,98313.45
2018-12-19T18:42:20.771Z,98312.19
2018-12-19T18:44:53.080Z,98310.88
2018-12-19T18:47:26.050Z,98314.20
2018-12-19T18:49:59.071Z,98313.31
2018-12-19T18:52:30.610Z,98303.68
2018-12-19T18:55:02.280Z,98302.77
2018-12-19T18:57:33.852Z,98303.64
2018-12-19T19:00:06.828Z,98298.69
2018-12-19T19:02:38.480Z,98294.37
2018-12-19T19:05:10.481Z,98302.37
2018-12-19T19:07:43.120Z,98299.32
2018-12-19T19:10:14.721Z,98293.12
2018-12-19T19:12:48.800Z,98289.70
2018-12-19T19:15:20.855Z,98298.95
2018-12-19T19:17:52.455Z,98286.69
2018-12-19T19:20:24.992Z,98279.58
2018-12-19T19:22:56.811Z,98289.61
2018-12-19T19:39:51.521Z,98286.33
2018-12-19T19:42:24.671Z,98286.73
2018-12-19T19:44:56.443Z,98301.87
2018-12-19T19:47:29.662Z,98304.39
2018-12-19T19:50:01.607Z,98306.91
2018-12-19T19:52:33.459Z,98316.08
2018-12-19T19:55:05.341Z,98312.36
2018-12-19T19:57:37.471Z,98325.35
2018-12-19T20:00:11.161Z,98324.94
2018-12-19T20:02:42.691Z,98329.08
2018-12-19T20:05:14.092Z,98331.58
2018-12-19T20:07:45.601Z,98331.14
2018-12-19T20:10:17.492Z,98330.28
2018-12-19T20:12:50.501Z,98330.22
2018-12-19T20:15:22.891Z,98339.89
2018-12-19T20:17:55.710Z,98344.92
2018-12-19T20:20:27.331Z,98342.02
2018-12-19T20:22:58.790Z,98337.39
2018-12-19T20:25:30.201Z,98333.66
2018-12-19T20:28:04.451Z,98335.41
2018-12-19T20:30:36.955Z,98337.13
2018-12-19T20:33:08.431Z,98335.77
2018-12-19T20:35:39.882Z,98340.45
2018-12-19T20:38:11.431Z,98349.71
2018-12-19T20:40:42.257Z,98347.14
2018-12-19T20:43:13.399Z,98351.73
2018-12-19T20:45:46.141Z,98358.88
2018-12-19T20:48:17.363Z,98358.48
2018-12-19T20:50:48.421Z,98355.16
2018-12-19T20:53:19.291Z,98354.30
2018-12-19T20:55:50.424Z,98365.17
2018-12-19T20:58:22.094Z,98358.83
2018-12-19T21:00:53.512Z,98354.20
2018-12-19T21:03:24.526Z,98343.73
2018-12-19T21:05:55.126Z,98353.03
2018-12-19T21:08:26.872Z,98344.68
2018-12-19T21:10:58.351Z,98356.83
2018-12-19T21:13:29.432Z,98358.93
2018-12-19T21:16:00.823Z,98352.23
2018-12-19T21:18:36.971Z,98353.09
2018-12-19T21:21:08.871Z,98355.70
2018-12-19T21:23:40.443Z,98355.97
2018-12-19T21:26:11.986Z,98353.91
2018-12-19T21:28:42.820Z,98350.47
2018-12-19T21:31:13.991Z,98345.43
2018-12-19T21:33:44.991Z,98346.25
2018-12-19T21:36:16.181Z,98339.19
2018-12-19T21:38:47.191Z,98339.64
2018-12-19T21:41:17.915Z,98336.67
2018-12-19T21:43:53.689Z,98333.70
2018-12-19T21:46:23.032Z,98321.97
2018-12-19T21:48:54.087Z,98328.32
2018-12-19T21:51:25.241Z,98330.38
2018-12-19T21:53:57.871Z,98324.53
2018-12-19T21:56:29.333Z,98324.95
2018-12-19T21:59:00.857Z,98317.80
2018-12-19T22:01:31.867Z,98325.34
2018-12-19T22:04:03.002Z,98326.56
2018-12-19T22:06:34.006Z,98321.92
2018-12-19T22:09:06.785Z,98326.56
2018-12-19T22:11:37.895Z,98325.29
2018-12-19T22:14:09.311Z,98331.19
2018-12-19T22:16:45.750Z,98334.10
2018-12-19T22:19:16.715Z,98321.52
2018-12-19T22:21:47.855Z,98316.53
2018-12-19T22:24:18.705Z,98313.52
2018-12-19T22:26:49.902Z,98307.27
2018-12-19T22:29:20.830Z,98308.53
2018-12-19T22:31:51.553Z,98309.83
2018-12-19T22:34:22.170Z,98313.56
2018-12-19T22:41:16.790Z,98304.76
2018-12-19T22:43:50.183Z,98259.28
2018-12-19T22:46:21.175Z,98301.03
2018-12-19T22:48:51.987Z,98298.52
2018-12-19T22:51:22.958Z,98294.33
2018-12-19T22:53:53.611Z,98293.48
2018-12-19T22:56:24.153Z,98285.15
2018-12-19T22:58:55.649Z,98290.95
2018-12-19T23:01:31.460Z,98289.24
2018-12-19T23:04:07.727Z,98283.31
2018-12-19T23:06:38.621Z,98279.17
2018-12-19T23:09:09.733Z,98281.59
2018-12-19T23:11:40.300Z,98279.49
2018-12-19T23:14:15.551Z,98274.91
2018-12-19T23:16:52.190Z,98276.56
2018-12-19T23:19:28.834Z,98272.84
2018-12-19T23:22:05.538Z,98266.55
2018-12-19T23:24:41.547Z,98271.22
2018-12-19T23:27:14.410Z,98270.00
2018-12-19T23:29:46.672Z,98279.18
2018-12-19T23:32:21.540Z,98273.73
2018-12-19T23:34:52.449Z,98276.66
2018-12-19T23:37:23.058Z,98278.77
2018-12-19T23:39:54.250Z,98273.28
2018-12-19T23:42:25.390Z,98278.73
2018-12-19T23:44:56.531Z,98278.77
2018-12-19T23:47:27.636Z,98286.69
2018-12-19T23:49:58.753Z,98285.41
2018-12-19T23:52:29.894Z,98294.58
2018-12-19T23:55:01.349Z,98302.55
2018-12-19T23:57:32.858Z,98305.45
